createdAt,value
2022-08-05T06:27:04.009Z,25.20
2022-08-05T06:29:46.688Z,25.40
2022-08-05T06:32:25.428Z,26.10
2022-08-05T06:34:57.881Z,26.80
2022-08-05T06:37:55.536Z,27.30
2022-08-05T06:40:18.249Z,27.80
2022-08-05T06:42:52.637Z,28.10
2022-08-05T06:46:02.915Z,28.10
2022-08-05T06:48:44.093Z,28.30
2022-08-05T06:50:57.208Z,28.70
2022-08-05T06:53:27.791Z,28.80
2022-08-05T06:56:00.035Z,29.00
2022-08-05T06:58:35.323Z,29.20
2022-08-05T07:01:06.410Z,29.50
2022-08-05T07:03:34.428Z,29.70
2022-08-05T07:06:05.980Z,29.80
2022-08-05T07:08:47.928Z,30.10
2022-08-05T07:11:22.387Z,29.60
2022-08-05T07:14:19.966Z,28.80
2022-08-05T07:18:02.050Z,28.90
2022-08-05T07:22:30.085Z,28.70
2022-08-05T07:24:59.406Z,27.90
2022-08-05T07:27:27.766Z,27.70
2022-08-05T07:30:27.214Z,27.70
2022-08-05T07:32:58.181Z,27.60
2022-08-05T07:36:02.518Z,27.40
2022-08-05T07:38:32.250Z,27.10
2022-08-05T07:42:07.743Z,26.70
2022-08-05T07:43:59.268Z,26.30
2022-08-05T07:46:27.949Z,25.90
2022-08-05T07:49:02.503Z,25.70
2022-08-05T07:51:48.734Z,25.50
2022-08-05T07:54:31.556Z,25.30
2022-08-05T07:57:22.580Z,25.10
2022-08-05T07:59:50.321Z,25.00
2022-08-05T08:02:18.410Z,24.80
2022-08-05T08:04:47.534Z,24.80
2022-08-05T08:07:15.885Z,24.80
2022-08-05T08:09:43.595Z,24.80
2022-08-05T08:12:35.057Z,24.80
2022-08-05T08:15:02.445Z,24.90
2022-08-05T08:17:31.290Z,24.90
2022-08-05T08:20:44.087Z,24.90
2022-08-05T08:22:59.072Z,24.90
2022-08-05T08:26:00.485Z,24.70
2022-08-05T08:28:35.612Z,24.50
2022-08-05T08:31:06.379Z,24.40
2022-08-05T08:33:38.079Z,24.20
2022-08-05T08:38:57.128Z,24.10
2022-08-05T08:41:52.563Z,24.20
2022-08-05T08:45:18.522Z,24.30
2022-08-05T08:47:21.806Z,24.30
2022-08-05T08:50:23.236Z,24.30
2022-08-05T08:52:51.838Z,24.10
2022-08-05T08:55:32.041Z,24.10
2022-08-05T08:58:13.171Z,24.00
2022-08-05T09:00:42.361Z,23.90
2022-08-05T09:03:11.634Z,23.80
2022-08-05T09:06:08.663Z,23.80
2022-08-05T09:08:27.454Z,23.90
2022-08-05T09:10:58.433Z,23.90
2022-08-05T09:13:31.688Z,24.00
2022-08-05T09:16:14.504Z,24.20
2022-08-05T09:18:44.512Z,24.40
2022-08-05T09:21:20.737Z,24.50
2022-08-05T09:24:10.426Z,24.50
2022-08-05T09:26:37.835Z,24.70
2022-08-05T09:29:08.786Z,24.80
2022-08-05T09:32:41.064Z,24.80
2022-08-05T09:34:23.633Z,24.80
2022-08-05T09:36:56.002Z,24.70
2022-08-05T09:39:45.799Z,24.70
2022-08-05T09:42:24.376Z,24.60
2022-08-05T09:44:57.437Z,24.60
2022-08-05T09:47:48.119Z,24.60
2022-08-05T09:50:38.253Z,24.80
2022-08-05T09:53:08.743Z,25.10
2022-08-05T09:55:56.307Z,25.20
2022-08-05T09:58:29.190Z,25.50
2022-08-05T10:01:13.462Z,25.70
2022-08-05T10:03:58.783Z,25.80
2022-08-05T10:06:28.293Z,25.90
2022-08-05T10:08:56.880Z,26.00
2022-08-05T10:11:24.049Z,26.00
2022-08-05T10:14:26.668Z,26.20
2022-08-05T10:16:58.909Z,26.40
2022-08-05T10:20:03.296Z,26.50
2022-08-05T10:22:30.091Z,26.60
2022-08-05T10:24:58.492Z,26.60
2022-08-05T10:28:12.846Z,26.70
2022-08-05T10:31:44.035Z,26.60
2022-08-05T10:33:03.354Z,26.50
2022-08-05T10:35:33.841Z,26.50
2022-08-05T10:38:11.861Z,26.60
2022-08-05T10:40:47.518Z,26.70
2022-08-05T10:43:31.041Z,26.80
2022-08-05T10:46:08.526Z,26.90
2022-08-05T10:48:58.165Z,26.90
2022-08-05T10:51:57.746Z,27.00
2022-08-05T10:55:05.193Z,27.00
2022-08-05T10:57:33.734Z,27.10
2022-08-05T11:00:17.908Z,27.20
2022-08-05T11:03:25.806Z,27.40
2022-08-05T11:06:18.799Z,27.40
2022-08-05T11:09:17.506Z,27.50
2022-08-05T11:11:53.511Z,27.60
2022-08-05T11:18:07.342Z,27.60
2022-08-05T11:20:43.714Z,27.70
2022-08-05T11:23:33.487Z,27.70
2022-08-05T11:26:28.927Z,27.80
2022-08-05T11:29:06.879Z,27.90
2022-08-05T11:31:54.089Z,27.90
2022-08-05T11:34:51.709Z,27.90
2022-08-05T11:38:26.746Z,27.60
2022-08-05T11:41:13.967Z,27.40
2022-08-05T11:44:06.366Z,27.40
2022-08-05T11:46:58.583Z,27.30
2022-08-05T11:49:34.325Z,27.20
2022-08-05T11:52:11.641Z,27.30
2022-08-05T11:54:41.351Z,27.40
2022-08-05T11:57:24.966Z,27.40
2022-08-05T11:59:53.506Z,27.40
2022-08-05T12:02:30.081Z,27.30
2022-08-05T12:05:01.370Z,27.30
2022-08-05T12:08:08.132Z,27.30
2022-08-05T12:10:43.128Z,27.10
2022-08-05T12:13:27.687Z,27.10
2022-08-05T12:16:14.870Z,27.20
2022-08-05T12:18:52.170Z,27.30
2022-08-05T12:21:29.870Z,27.30
2022-08-05T12:24:05.107Z,27.20
2022-08-05T12:26:33.753Z,27.30
2022-08-05T12:29:03.262Z,27.30
2022-08-05T12:31:41.527Z,27.30
2022-08-05T12:34:37.363Z,27.30
2022-08-05T12:37:17.134Z,27.30
2022-08-05T12:39:51.793Z,27.30
2022-08-05T12:42:21.813Z,27.20
2022-08-05T12:44:52.779Z,27.10
2022-08-05T12:47:31.090Z,27.20
2022-08-05T12:50:04.815Z,27.30
2022-08-05T12:52:38.848Z,27.20
2022-08-05T12:55:25.075Z,27.30
2022-08-05T12:58:49.663Z,27.40
2022-08-05T13:02:01.009Z,27.40
2022-08-05T13:03:42.289Z,27.40
2022-08-05T13:06:17.477Z,27.50
2022-08-05T13:08:52.245Z,27.70
2022-08-05T13:12:02.351Z,27.80
2022-08-05T13:14:35.909Z,27.60
2022-08-05T13:17:10.438Z,27.50
2022-08-05T13:19:50.893Z,27.40
2022-08-05T13:22:28.086Z,27.30
2022-08-05T13:25:05.610Z,27.30
2022-08-05T13:27:38.200Z,27.40
2022-08-05T13:30:34.570Z,27.40
2022-08-05T13:32:56.567Z,27.50
2022-08-05T13:35:43.130Z,27.40
2022-08-05T13:38:20.414Z,27.30
2022-08-05T13:40:58.543Z,27.10
2022-08-05T13:43:45.858Z,26.90
2022-08-05T13:46:14.324Z,26.60
2022-08-05T13:48:57.993Z,26.60
2022-08-05T13:51:40.276Z,26.40
2022-08-05T13:54:12.397Z,26.40
2022-08-05T13:56:51.505Z,26.40
2022-08-05T13:59:23.965Z,26.40
2022-08-05T14:02:00.395Z,26.50
2022-08-05T14:04:50.857Z,26.50
2022-08-05T14:07:25.874Z,26.50
2022-08-05T14:10:28.452Z,26.60
2022-08-05T14:12:57.453Z,26.50
2022-08-05T14:16:04.816Z,26.30
2022-08-05T14:18:18.727Z,26.30
2022-08-05T14:20:54.581Z,26.10
2022-08-05T14:23:25.532Z,26.00
2022-08-05T14:25:57.969Z,26.20
2022-08-05T14:28:30.749Z,26.30
2022-08-05T14:30:59.216Z,26.30
2022-08-05T14:33:26.468Z,26.10
2022-08-05T14:35:54.767Z,26.00
2022-08-05T14:38:32.146Z,25.90
2022-08-05T14:41:06.125Z,25.80
2022-08-05T14:43:53.936Z,25.60
2022-08-05T14:46:28.867Z,25.40
2022-08-05T14:49:08.048Z,25.10
2022-08-05T14:51:42.475Z,25.00
2022-08-05T14:54:28.242Z,24.90
2022-08-05T14:56:58.183Z,25.10
2022-08-05T14:59:29.578Z,25.20
2022-08-05T15:02:03.954Z,25.20
2022-08-05T15:04:43.344Z,25.00
2022-08-05T15:08:10.730Z,24.80
2022-08-05T15:10:01.332Z,24.80
2022-08-05T15:12:40.903Z,24.70
2022-08-05T15:15:16.360Z,24.70
2022-08-05T15:17:46.840Z,24.60
2022-08-05T15:20:19.367Z,24.70
2022-08-05T15:22:54.992Z,24.50
2022-08-05T15:25:51.406Z,24.50
2022-08-05T15:28:15.658Z,24.50
2022-08-05T15:30:45.601Z,24.50
2022-08-05T15:33:56.873Z,24.50
2022-08-05T15:36:05.865Z,24.40
2022-08-05T15:38:44.809Z,24.30
2022-08-05T15:41:22.464Z,24.20
2022-08-05T15:43:52.411Z,24.10
2022-08-05T15:46:24.354Z,24.20
2022-08-05T15:48:58.675Z,24.20
2022-08-05T15:52:04.158Z,24.30
2022-08-05T15:54:17.085Z,24.20
2022-08-05T15:56:44.262Z,24.30
2022-08-05T15:59:21.985Z,24.30
2022-08-05T16:01:53.747Z,24.30
2022-08-05T16:04:25.537Z,24.30
2022-08-05T16:06:55.529Z,24.30
2022-08-05T16:09:24.341Z,24.40
2022-08-05T16:11:53.766Z,24.30
2022-08-05T16:14:22.407Z,24.20
2022-08-05T16:16:49.756Z,24.10
2022-08-05T16:19:25.558Z,23.90
2022-08-05T16:22:05.231Z,23.80
2022-08-05T16:24:40.975Z,23.80
2022-08-05T16:27:10.122Z,23.60
2022-08-05T16:29:50.065Z,23.60
2022-08-05T16:32:18.327Z,23.60
2022-08-05T16:34:56.567Z,23.50
2022-08-05T16:38:03.118Z,23.50
2022-08-05T16:40:29.130Z,23.40
2022-08-05T16:42:57.286Z,23.30
2022-08-05T16:46:06.566Z,23.20
2022-08-05T16:48:25.299Z,23.10
2022-08-05T16:50:53.987Z,23.00
2022-08-05T16:53:22.827Z,22.90
2022-08-05T16:55:59.026Z,22.90
2022-08-05T16:58:26.854Z,22.80
2022-08-05T17:00:54.144Z,22.80
2022-08-05T17:03:22.148Z,22.70
2022-08-05T17:05:53.832Z,22.70
2022-08-05T17:08:36.473Z,22.60
2022-08-05T17:11:12.852Z,22.50
2022-08-05T17:13:45.300Z,22.50
2022-08-05T17:16:32.548Z,22.50
2022-08-05T17:19:00.149Z,22.40
2022-08-05T17:21:35.757Z,22.30
2022-08-05T17:24:28.435Z,22.20
2022-08-05T17:26:57.358Z,22.20
2022-08-05T17:29:33.665Z,22.10
2022-08-05T17:32:17.436Z,22.00
2022-08-05T17:34:48.185Z,21.90
2022-08-05T17:37:40.419Z,21.90
2022-08-05T17:40:12.186Z,21.80
2022-08-05T17:42:46.438Z,21.70
2022-08-05T17:45:21.899Z,21.70
2022-08-05T17:47:55.373Z,21.70
2022-08-05T17:50:29.497Z,21.50
2022-08-05T17:53:02.134Z,21.60
2022-08-05T17:55:38.044Z,21.50
2022-08-05T17:58:12.768Z,21.50
2022-08-05T18:00:45.283Z,21.40
2022-08-05T18:06:06.103Z,21.30
2022-08-05T18:08:44.987Z,21.30
2022-08-05T18:11:24.084Z,21.20
2022-08-05T18:13:57.081Z,21.20
2022-08-05T18:16:26.931Z,21.10
2022-08-05T18:18:54.147Z,21.10
2022-08-05T18:21:22.874Z,21.10
2022-08-05T18:24:05.459Z,21.00
2022-08-05T18:26:32.700Z,21.00
2022-08-05T18:29:00.251Z,21.00
2022-08-05T18:31:32.963Z,21.00
2022-08-05T18:34:06.062Z,20.90
2022-08-05T18:36:35.424Z,20.90
2022-08-05T18:39:09.664Z,20.80
2022-08-05T18:41:57.704Z,20.80
2022-08-05T18:44:33.330Z,20.70
2022-08-05T18:47:03.990Z,20.70
2022-08-05T18:49:58.163Z,20.70
2022-08-05T18:52:36.122Z,20.60
2022-08-05T18:55:10.667Z,20.60
2022-08-05T18:57:50.112Z,20.60
2022-08-05T19:00:29.068Z,20.50
2022-08-05T19:03:04.069Z,20.50
2022-08-05T19:06:12.600Z,20.40
2022-08-05T19:08:20.295Z,20.40
2022-08-05T19:10:50.118Z,20.40
2022-08-05T19:13:17.535Z,20.30
2022-08-05T19:15:45.180Z,20.30
2022-08-05T19:18:25.751Z,20.30
2022-08-05T19:20:52.946Z,20.20
2022-08-05T19:24:03.774Z,20.20
2022-08-05T19:26:09.263Z,20.10
2022-08-05T19:28:42.323Z,20.10
2022-08-05T19:31:13.447Z,20.10
2022-08-05T19:33:48.761Z,20.10
2022-08-05T19:36:26.769Z,20.00
2022-08-05T19:39:00.866Z,20.00
2022-08-05T19:41:58.137Z,19.90
2022-08-05T19:44:18.842Z,19.90
2022-08-05T19:46:46.447Z,19.80
2022-08-05T19:49:16.669Z,19.80
2022-08-05T19:52:05.890Z,19.70
2022-08-05T19:54:35.093Z,19.70
2022-08-05T19:57:07.638Z,19.60
2022-08-05T20:00:01.078Z,19.60
2022-08-05T20:02:30.441Z,19.60
2022-08-05T20:04:59.737Z,19.60
2022-08-05T20:07:47.122Z,19.50
2022-08-05T20:10:19.137Z,19.50
2022-08-05T20:12:49.330Z,19.50
2022-08-05T20:15:23.012Z,19.50
2022-08-05T20:18:10.989Z,19.50
2022-08-05T20:20:55.159Z,19.40
2022-08-05T20:23:22.653Z,19.30
2022-08-05T20:25:52.262Z,19.30
2022-08-05T20:28:21.305Z,19.30
2022-08-05T20:30:49.594Z,19.20
2022-08-05T20:33:17.997Z,19.20
2022-08-05T20:35:48.804Z,19.20
2022-08-05T20:38:26.724Z,19.10
2022-08-05T20:40:55.449Z,19.10
2022-08-05T20:43:57.892Z,19.10
2022-08-05T20:46:18.376Z,19.00
2022-08-05T20:48:52.178Z,19.00
2022-08-05T20:51:19.754Z,19.00
2022-08-05T20:53:56.389Z,18.70
2022-08-05T20:56:31.042Z,18.70
2022-08-05T20:59:11.354Z,18.90
2022-08-05T21:01:44.851Z,18.90
2022-08-05T21:04:12.173Z,18.80
2022-08-05T21:06:45.625Z,18.80
2022-08-05T21:09:15.206Z,18.80
2022-08-05T21:12:08.080Z,18.80
2022-08-05T21:14:34.809Z,18.70
2022-08-05T21:17:06.169Z,18.70
2022-08-05T21:19:47.250Z,18.60
2022-08-05T21:22:17.590Z,18.70
2022-08-05T21:24:48.963Z,18.60
2022-08-05T21:27:25.517Z,18.60
2022-08-05T21:29:56.507Z,18.60
2022-08-05T21:32:28.264Z,18.60
2022-08-05T21:35:17.668Z,18.50
2022-08-05T21:37:53.181Z,18.50
2022-08-05T21:40:23.283Z,18.50
2022-08-05T21:45:51.875Z,18.50
2022-08-05T21:48:11.703Z,18.40
2022-08-05T21:50:42.202Z,18.40
2022-08-05T21:53:20.591Z,18.40
2022-08-05T21:56:06.162Z,18.40
2022-08-05T21:58:42.294Z,18.30
2022-08-05T22:01:24.195Z,18.30
2022-08-05T22:03:53.577Z,18.30
2022-08-05T22:06:35.506Z,18.30
2022-08-05T22:09:15.166Z,18.30
2022-08-05T22:11:48.168Z,18.20
2022-08-05T22:14:34.581Z,18.30
2022-08-05T22:17:05.026Z,18.20
2022-08-05T22:20:00.332Z,18.20
2022-08-05T22:22:27.933Z,18.10
2022-08-05T22:25:21.071Z,18.10
2022-08-05T22:28:11.184Z,18.10
2022-08-05T22:30:56.169Z,18.10
2022-08-05T22:33:55.604Z,18.10
2022-08-05T22:36:15.656Z,18.10
2022-08-05T22:38:48.656Z,18.10
2022-08-05T22:42:05.143Z,18.10
2022-08-05T22:44:05.691Z,18.00
2022-08-05T22:46:32.921Z,18.00
2022-08-05T22:49:00.194Z,18.00
2022-08-05T22:52:04.672Z,18.00
2022-08-05T22:54:14.744Z,18.00
2022-08-05T22:56:41.831Z,17.90
2022-08-05T22:59:46.370Z,18.00
2022-08-05T23:02:06.113Z,17.90
2022-08-05T23:04:35.708Z,17.90
2022-08-05T23:09:53.418Z,17.80
2022-08-05T23:12:20.373Z,17.90
2022-08-05T23:14:51.482Z,17.80
2022-08-05T23:17:32.706Z,17.80
2022-08-05T23:20:10.527Z,17.80
2022-08-05T23:22:47.687Z,17.80
2022-08-05T23:25:51.552Z,17.70
2022-08-05T23:28:07.398Z,17.70
2022-08-05T23:30:40.381Z,17.70
2022-08-05T23:33:16.396Z,17.70
2022-08-05T23:35:55.066Z,17.70
2022-08-05T23:38:24.501Z,17.70
2022-08-05T23:40:52.818Z,17.60
2022-08-05T23:43:25.422Z,17.60
2022-08-05T23:46:20.382Z,17.60
2022-08-05T23:49:00.490Z,17.60
2022-08-05T23:51:55.475Z,17.60
2022-08-05T23:54:25.167Z,17.60
2022-08-05T23:56:55.470Z,17.60
